Time;durP1;ratioP1;P1;durP2;ratioP2;P2;SDS_P1;SDS_P2;PMS_P1;PMS_P2;Temp;Humidity;BMP_temperature;BMP_pressure;BME280_temperature;BME280_humidity;BME280_pressure;Samples;Min_cycle;Max_cycle;Signal;HPM_P1;HPM_P2
2022/09/02 00:01:26;;;;;;;3.80;3.40;;;;;;;16.17;68.55;98591.63;4923995;28;20586;-56
2022/09/02 00:03:56;;;;;;;4.17;3.37;;;;;;;16.28;65.93;98583.22;4926637;28;20252;-57
2022/09/02 00:06:23;;;;;;;5.07;3.37;;;;;;;16.33;67.05;98578.19;4920413;28;20246;-55
2022/09/02 00:08:49;;;;;;;5.63;3.27;;;;;;;16.57;64.70;98573.53;4927506;28;20275;-54
2022/09/02 00:11:21;;;;;;;6.97;3.67;;;;;;;16.50;66.30;98565.56;4927137;28;20702;-57
2022/09/02 00:13:48;;;;;;;3.87;3.50;;;;;;;16.59;64.99;98582.06;4924975;28;20241;-56
2022/09/02 00:16:16;;;;;;;4.77;3.13;;;;;;;16.51;65.23;98576.91;4927763;28;20237;-56
2022/09/02 00:18:43;;;;;;;5.60;3.40;;;;;;;16.44;65.76;98574.22;4925326;28;20246;-53
2022/09/02 00:21:12;;;;;;;5.70;3.27;;;;;;;16.51;64.16;98567.19;4923611;28;20785;-56
2022/09/02 00:23:39;;;;;;;4.07;3.57;;;;;;;16.57;64.62;98568.25;4923298;28;20304;-56
2022/09/02 00:26:25;;;;;;;2.90;2.60;;;;;;;16.62;65.06;98570.31;4921070;28;20238;-57
2022/09/02 00:28:51;;;;;;;5.07;3.23;;;;;;;16.75;62.39;98580.94;4927518;28;20245;-57
2022/09/02 00:31:20;;;;;;;4.97;3.00;;;;;;;16.72;63.66;98570.00;4925861;28;20297;-57
2022/09/02 00:33:49;;;;;;;4.60;3.00;;;;;;;16.62;63.01;98565.03;4922128;28;20233;-57
2022/09/02 00:36:16;;;;;;;3.47;3.07;;;;;;;16.72;64.26;98581.31;4926143;28;20724;-57
2022/09/02 00:38:43;;;;;;;3.67;2.93;;;;;;;16.67;62.67;98566.09;4917484;28;20249;-56
2022/09/02 00:41:11;;;;;;;5.43;2.73;;;;;;;16.62;62.75;98568.50;4924362;28;20235;-56
2022/09/02 00:43:45;;;;;;;3.30;2.90;;;;;;;16.61;63.41;98571.31;4920208;28;20249;-55
2022/09/02 00:46:13;;;;;;;5.70;3.27;;;;;;;16.53;63.77;98567.00;4923559;28;20237;-56
2022/09/02 00:48:47;;;;;;;4.15;2.90;;;;;;;16.62;63.53;98563.22;4918699;29;20461;-56
2022/09/02 00:51:15;;;;;;;4.07;2.60;;;;;;;16.42;64.13;98567.53;4921739;28;20239;-53
2022/09/02 00:53:46;;;;;;;4.53;2.90;;;;;;;16.36;66.16;98561.22;4936315;28;20252;-56
2022/09/02 00:56:19;;;;;;;4.43;2.70;;;;;;;16.19;66.23;98550.09;4926073;28;20362;-53
2022/09/02 00:58:46;;;;;;;5.40;2.97;;;;;;;16.19;65.11;98558.00;4921646;28;20245;-55
2022/09/02 01:01:13;;;;;;;4.53;2.70;;;;;;;16.20;63.49;98559.63;4926012;29;20252;-55
2022/09/02 01:03:42;;;;;;;4.40;2.73;;;;;;;16.20;64.12;98560.47;4921143;28;20868;-56
2022/09/02 01:06:14;;;;;;;3.63;3.00;;;;;;;16.44;63.27;98561.03;4924966;28;20246;-55
2022/09/02 01:08:45;;;;;;;3.50;3.00;;;;;;;16.42;63.26;98551.72;4921825;28;20744;-54
2022/09/02 01:11:12;;;;;;;3.70;2.60;;;;;;;16.32;63.60;98566.03;4924303;29;20229;-52
2022/09/02 01:13:41;;;;;;;3.23;2.67;;;;;;;16.35;61.48;98557.75;4921100;28;20618;-61
2022/09/02 01:16:13;;;;;;;5.13;3.20;;;;;;;16.26;62.16;98556.25;4924612;29;20248;-56
2022/09/02 01:18:44;;;;;;;4.93;3.13;;;;;;;16.10;65.81;98559.97;4922744;28;20247;-56
2022/09/02 01:21:11;;;;;;;3.23;2.57;;;;;;;15.84;66.72;98563.94;4922362;29;20256;-55
2022/09/02 01:23:39;;;;;;;3.47;2.80;;;;;;;15.90;64.14;98563.22;4920633;28;20247;-56
2022/09/02 01:26:06;;;;;;;3.33;2.30;;;;;;;15.73;63.82;98559.16;4923310;28;20238;-54
2022/09/02 01:28:34;;;;;;;5.03;2.70;;;;;;;15.79;65.32;98561.88;4921543;28;20305;-54
2022/09/02 01:31:01;;;;;;;6.07;2.60;;;;;;;15.71;63.95;98550.63;4927202;28;20243;-55
2022/09/02 01:33:29;;;;;;;4.83;2.53;;;;;;;15.81;64.02;98561.66;4919344;28;20896;-54
2022/09/02 01:35:56;;;;;;;3.37;2.63;;;;;;;15.76;64.85;98556.16;4924905;28;20243;-51
2022/09/02 01:38:24;;;;;;;3.00;2.43;;;;;;;15.69;65.39;98573.66;4921304;28;20248;-52
2022/09/02 01:40:53;;;;;;;6.17;2.73;;;;;;;15.53;67.26;98567.63;4924216;28;20235;-53
2022/09/02 01:43:26;;;;;;;3.60;2.87;;;;;;;15.32;69.44;98561.31;4918498;29;20237;-54
2022/09/02 01:45:56;;;;;;;3.83;2.50;;;;;;;15.12;70.00;98563.69;4918841;29;20764;-53
2022/09/02 01:48:25;;;;;;;3.30;2.77;;;;;;;14.94;71.04;98556.16;4921420;28;20250;-54
2022/09/02 01:50:55;;;;;;;3.93;2.43;;;;;;;14.75;71.88;98560.16;4923261;28;20240;-53
2022/09/02 01:53:23;;;;;;;3.87;2.43;;;;;;;14.66;72.02;98561.19;4916981;28;20239;-55
2022/09/02 01:55:53;;;;;;;4.37;2.67;;;;;;;14.54;73.73;98552.91;4922900;29;20243;-52
2022/09/02 01:58:20;;;;;;;3.67;2.93;;;;;;;14.43;72.45;98556.78;4921667;29;20241;-54
2022/09/02 02:00:48;;;;;;;4.07;3.07;;;;;;;14.32;72.97;98545.72;4922546;28;20780;-51
2022/09/02 02:03:15;;;;;;;4.87;2.90;;;;;;;14.28;73.76;98554.13;4924576;29;20304;-52
2022/09/02 02:05:43;;;;;;;3.33;3.03;;;;;;;14.21;74.30;98545.34;4918445;28;20284;-54
2022/09/02 02:08:13;;;;;;;3.80;2.67;;;;;;;14.24;75.91;98547.59;4918366;29;20236;-54
2022/09/02 02:10:42;;;;;;;3.30;3.00;;;;;;;14.10;76.24;98550.00;4920356;28;20316;-52
2022/09/02 02:13:11;;;;;;;5.37;3.30;;;;;;;14.02;76.64;98545.59;4922671;28;20264;-52
2022/09/02 02:15:41;;;;;;;4.17;3.10;;;;;;;13.96;75.86;98550.75;4919097;28;20239;-55
2022/09/02 02:18:07;;;;;;;6.47;3.07;;;;;;;13.99;76.83;98555.66;4923567;28;20242;-52
2022/09/02 02:20:35;;;;;;;3.07;2.87;;;;;;;13.99;74.85;98553.03;4922183;28;20740;-53
2022/09/02 02:23:02;;;;;;;2.83;2.63;;;;;;;13.90;75.27;98551.44;4939663;28;20714;-53
2022/09/02 02:25:29;;;;;;;3.53;2.93;;;;;;;13.91;75.67;98553.88;4936957;28;20242;-53
2022/09/02 02:27:56;;;;;;;3.17;2.87;;;;;;;13.76;76.23;98548.56;4937210;28;20239;-55
2022/09/02 02:30:24;;;;;;;3.13;2.60;;;;;;;13.73;77.15;98551.53;4920121;28;20623;-54
2022/09/02 02:32:52;;;;;;;3.13;2.83;;;;;;;13.67;77.45;98545.19;4923022;28;20336;-54
2022/09/02 02:35:20;;;;;;;3.67;2.87;;;;;;;13.63;77.49;98543.91;4923847;29;20243;-54
2022/09/02 02:37:49;;;;;;;3.93;2.70;;;;;;;13.67;76.58;98545.19;4921210;28;20375;-55
2022/09/02 02:40:19;;;;;;;3.20;2.60;;;;;;;13.64;76.99;98548.16;4920425;29;20224;-54
2022/09/02 02:42:47;;;;;;;3.07;2.77;;;;;;;13.60;75.90;98546.88;4917157;28;20243;-56
2022/09/02 02:45:15;;;;;;;2.77;2.57;;;;;;;13.73;74.24;98547.13;4935256;28;20244;-55
2022/09/02 02:47:44;;;;;;;6.67;3.10;;;;;;;13.71;74.10;98543.03;4934756;28;20242;-55
2022/09/02 02:50:14;;;;;;;3.50;2.60;;;;;;;13.69;74.56;98551.09;4921061;29;20232;-55
2022/09/02 02:52:42;;;;;;;4.10;2.80;;;;;;;13.61;74.99;98543.25;4920093;28;20254;-52
2022/09/02 02:55:11;;;;;;;4.47;2.90;;;;;;;13.66;74.14;98551.44;4921120;29;20287;-52
2022/09/02 02:57:39;;;;;;;3.37;2.90;;;;;;;13.58;74.87;98548.84;4919239;28;20257;-55
2022/09/02 03:00:11;;;;;;;3.27;2.90;;;;;;;13.53;74.95;98546.72;4920120;28;20240;-52
2022/09/02 03:02:38;;;;;;;3.17;2.40;;;;;;;13.52;75.93;98552.16;4918792;29;20280;-52
2022/09/02 03:05:08;;;;;;;3.50;2.60;;;;;;;13.65;74.07;98544.56;4921227;29;20640;-54
2022/09/02 03:07:35;;;;;;;3.90;2.93;;;;;;;13.55;73.59;98543.94;4934981;28;20235;-55
2022/09/02 03:10:05;;;;;;;3.37;2.60;;;;;;;13.55;74.60;98541.31;4922681;29;20874;-56
2022/09/02 03:12:32;;;;;;;4.80;2.60;;;;;;;13.48;74.55;98538.56;4920240;28;20251;-55
2022/09/02 03:15:01;;;;;;;4.20;2.67;;;;;;;13.50;74.96;98544.44;4922579;29;20259;-56
2022/09/02 03:17:29;;;;;;;3.13;2.40;;;;;;;13.36;75.39;98540.72;4937041;28;20235;-54
2022/09/02 03:19:58;;;;;;;5.20;2.80;;;;;;;13.40;76.87;98534.16;4937576;28;20315;-53
2022/09/02 03:22:27;;;;;;;4.80;2.57;;;;;;;13.24;76.85;98542.91;4917673;28;20774;-52
2022/09/02 03:24:55;;;;;;;3.93;2.67;;;;;;;13.18;77.52;98538.34;4918175;29;20600;-52
2022/09/02 03:27:23;;;;;;;4.50;2.57;;;;;;;13.19;77.86;98544.41;4919240;29;20229;-55
2022/09/02 03:29:50;;;;;;;4.10;2.70;;;;;;;13.10;78.58;98541.00;4923407;28;20414;-53
2022/09/02 03:32:17;;;;;;;3.80;2.57;;;;;;;13.11;78.38;98540.81;4920926;29;20250;-53
2022/09/02 03:34:45;;;;;;;4.10;2.80;;;;;;;13.05;78.52;98543.31;4917326;28;20234;-55
2022/09/02 03:37:13;;;;;;;4.93;3.27;;;;;;;12.95;78.28;98535.63;4922833;29;20876;-55
2022/09/02 03:39:42;;;;;;;2.87;2.60;;;;;;;13.03;78.78;98542.66;4917736;29;20262;-55
2022/09/02 03:42:09;;;;;;;3.17;2.70;;;;;;;12.90;79.05;98545.78;4922582;29;20232;-54
2022/09/02 03:44:36;;;;;;;3.30;2.90;;;;;;;12.85;79.14;98535.84;4916155;29;20589;-52
2022/09/02 03:47:03;;;;;;;3.17;2.70;;;;;;;12.80;79.75;98540.75;4940267;28;20258;-54
2022/09/02 03:49:30;;;;;;;3.00;2.63;;;;;;;12.74;80.72;98541.41;4917525;28;20235;-55
2022/09/02 03:51:58;;;;;;;7.13;2.63;;;;;;;12.67;80.12;98543.91;4922459;28;20247;-52
2022/09/02 03:54:25;;;;;;;3.50;2.70;;;;;;;12.61;79.21;98536.72;4918023;28;20243;-52
2022/09/02 03:56:53;;;;;;;4.50;2.30;;;;;;;12.58;79.21;98539.66;4939654;28;20243;-55
2022/09/02 03:59:20;;;;;;;3.60;2.73;;;;;;;12.65;81.48;98544.06;4922010;28;20724;-54
2022/09/02 04:01:47;;;;;;;3.70;2.77;;;;;;;12.57;81.35;98540.63;4921616;28;20239;-55
2022/09/02 04:04:15;;;;;;;4.53;2.60;;;;;;;12.54;79.31;98534.75;4940252;28;20227;-56
2022/09/02 04:06:43;;;;;;;4.37;2.37;;;;;;;12.49;79.78;98542.28;4924625;29;20271;-53
2022/09/02 04:09:09;;;;;;;3.83;2.43;;;;;;;12.61;80.07;98537.50;4944842;28;20259;-55
2022/09/02 04:11:41;;;;;;;2.60;2.27;;;;;;;12.58;79.77;98534.41;4921911;29;20231;-55
2022/09/02 04:14:11;;;;;;;4.70;2.73;;;;;;;12.46;79.22;98534.75;4927571;28;20739;-54
2022/09/02 04:21:11;;;;;;;2.90;2.60;;;;;;;12.56;79.55;98537.19;4922715;28;20728;-54
2022/09/02 04:23:39;;;;;;;3.20;2.90;;;;;;;12.44;79.49;98533.28;4921025;28;20231;-53
2022/09/02 04:26:07;;;;;;;5.77;2.40;;;;;;;12.43;79.97;98529.03;4943703;28;20232;-54
2022/09/02 04:28:34;;;;;;;3.47;2.50;;;;;;;12.38;78.57;98540.78;4922967;28;20601;-53
2022/09/02 04:31:05;;;;;;;3.47;2.70;;;;;;;12.32;78.86;98533.59;4922814;29;20238;-54
2022/09/02 04:33:32;;;;;;;3.23;2.20;;;;;;;12.32;78.80;98533.59;4937186;28;20261;-52
2022/09/02 04:35:59;;;;;;;2.33;2.13;;;;;;;12.50;77.00;98525.59;4924666;29;20241;-52
2022/09/02 04:38:26;;;;;;;4.20;2.37;;;;;;;12.57;77.43;98528.34;4922458;29;20317;-52
2022/09/02 04:40:53;;;;;;;4.07;2.70;;;;;;;12.52;77.73;98528.84;4927120;28;20249;-52
2022/09/02 04:43:20;;;;;;;5.30;3.50;;;;;;;12.50;78.72;98533.44;4922457;29;20243;-54
2022/09/02 04:45:48;;;;;;;3.47;2.50;;;;;;;12.46;79.47;98528.69;4919574;29;20699;-54
2022/09/02 04:48:19;;;;;;;6.87;2.27;;;;;;;12.37;80.06;98531.31;4928048;29;20310;-52
2022/09/02 04:50:47;;;;;;;7.93;2.50;;;;;;;12.33;79.68;98519.53;4922274;29;20235;-53
2022/09/02 04:53:15;;;;;;;5.33;2.27;;;;;;;12.28;78.88;98528.88;4922161;29;20744;-54
2022/09/02 04:55:43;;;;;;;2.47;2.03;;;;;;;12.35;78.35;98516.75;4919939;28;20727;-53
2022/09/02 04:58:13;;;;;;;3.70;2.23;;;;;;;12.45;79.37;98533.13;4941127;28;20233;-53
2022/09/02 05:00:41;;;;;;;4.47;2.43;;;;;;;12.43;77.78;98524.63;4924171;29;20241;-54
2022/09/02 05:03:12;;;;;;;3.40;2.17;;;;;;;12.42;78.48;98532.63;4926812;29;20314;-51
2022/09/02 05:05:42;;;;;;;5.73;2.30;;;;;;;12.48;79.01;98531.97;4921803;28;20583;-55
2022/09/02 05:08:12;;;;;;;2.33;2.13;;;;;;;12.55;75.34;98525.06;4941045;28;20314;-52
2022/09/02 05:10:40;;;;;;;2.77;2.27;;;;;;;12.57;77.26;98517.88;4936558;28;20294;-55
2022/09/02 05:13:07;;;;;;;3.60;2.00;;;;;;;12.51;77.48;98529.84;4923682;28;20261;-53
2022/09/02 05:15:39;;;;;;;2.50;2.30;;;;;;;12.62;79.01;98522.63;4922208;28;20588;-52
2022/09/02 05:18:06;;;;;;;5.47;2.30;;;;;;;12.65;77.04;98525.72;4923878;28;20226;-55
2022/09/02 05:20:32;;;;;;;2.30;2.10;;;;;;;12.72;74.39;98525.84;4922495;28;20218;-52
2022/09/02 05:23:01;;;;;;;5.00;1.90;;;;;;;12.70;74.64;98526.03;4920964;29;20270;-51
2022/09/02 05:25:28;;;;;;;2.90;2.37;;;;;;;12.78;75.91;98527.81;4924306;28;20243;-54
2022/09/02 05:27:54;;;;;;;4.07;2.17;;;;;;;12.77;76.94;98530.59;4923190;28;20235;-51
2022/09/02 05:30:41;;;;;;;3.87;1.97;;;;;;;12.81;76.48;98537.16;4922578;28;20374;-51
2022/09/02 05:33:10;;;;;;;2.57;2.00;;;;;;;12.81;75.21;98537.94;4920127;29;20325;-52
2022/09/02 05:35:40;;;;;;;2.60;2.07;;;;;;;12.86;76.25;98532.22;4936273;28;20234;-54
2022/09/02 05:38:08;;;;;;;2.50;2.20;;;;;;;12.93;74.46;98542.84;4924897;29;20234;-53
2022/09/02 05:40:37;;;;;;;5.67;2.10;;;;;;;12.89;76.61;98541.53;4921286;28;20253;-55
2022/09/02 05:43:04;;;;;;;3.90;2.20;;;;;;;12.81;77.53;98537.16;4921831;28;20268;-55
2022/09/02 05:45:32;;;;;;;2.27;1.90;;;;;;;12.89;75.50;98536.31;4934256;28;20223;-54
2022/09/02 05:49:04;;;;;;;2.80;1.77;;;;;;;13.10;72.12;98544.44;4921627;29;20866;-53
2022/09/02 05:50:46;;;;;;;3.67;1.97;;;;;;;13.11;75.11;98540.81;4920212;28;20387;-52
2022/09/02 05:53:15;;;;;;;3.53;2.17;;;;;;;13.15;74.88;98538.69;4919836;29;20235;-53
2022/09/02 05:55:41;;;;;;;5.97;2.10;;;;;;;13.13;75.74;98543.28;4921971;29;20309;-53
2022/09/02 05:58:08;;;;;;;2.13;1.90;;;;;;;13.10;75.38;98541.00;4921971;29;20736;-54
2022/09/02 06:00:37;;;;;;;2.17;1.90;;;;;;;13.19;77.33;98541.78;4918482;28;20570;-53
2022/09/02 06:03:03;;;;;;;2.83;1.77;;;;;;;13.20;77.53;98530.31;4921466;29;20243;-53
2022/09/02 06:05:36;;;;;;;5.20;2.10;;;;;;;13.13;76.18;98533.59;4919909;28;20229;-52
2022/09/02 06:08:08;;;;;;;2.20;1.90;;;;;;;13.08;77.30;98535.91;4907879;29;20239;-53
2022/09/02 06:10:43;;;;;;;3.40;1.80;;;;;;;13.17;73.32;98538.50;4907310;29;20254;-53
2022/09/02 06:13:15;;;;;;;2.50;1.70;;;;;;;13.20;74.61;98538.16;4916682;29;20339;-52
2022/09/02 06:15:42;;;;;;;3.23;1.90;;;;;;;13.23;75.93;98529.97;4921421;28;20683;-53
2022/09/02 06:18:11;;;;;;;3.30;2.20;;;;;;;13.30;76.86;98525.69;4925811;28;20747;-54
2022/09/02 06:20:40;;;;;;;1.97;1.77;;;;;;;13.27;75.32;98521.56;4920473;29;20247;-55
2022/09/02 06:23:07;;;;;;;2.23;1.93;;;;;;;13.27;76.03;98533.88;4928077;28;20699;-53
2022/09/02 06:25:36;;;;;;;4.20;2.00;;;;;;;13.36;76.46;98524.16;4938932;28;21577;-53
2022/09/02 06:28:04;;;;;;;4.13;1.57;;;;;;;13.34;74.85;98524.34;4923175;29;20238;-53
2022/09/02 06:30:31;;;;;;;3.43;2.10;;;;;;;13.36;74.51;98521.53;4917449;28;20687;-54
2022/09/02 06:33:02;;;;;;;3.50;1.70;;;;;;;13.48;75.10;98525.44;4939854;28;20250;-54
2022/09/02 06:35:30;;;;;;;2.00;1.80;;;;;;;13.50;73.98;98522.66;4922222;28;20270;-52
2022/09/02 06:37:59;;;;;;;2.60;1.70;;;;;;;13.51;72.71;98529.53;4924478;28;20234;-54
2022/09/02 06:40:27;;;;;;;2.80;1.57;;;;;;;13.67;74.10;98521.59;4919630;28;20924;-51
2022/09/02 06:42:54;;;;;;;2.10;1.63;;;;;;;13.73;73.06;98518.28;4922506;29;20238;-53
2022/09/02 06:45:33;;;;;;;5.17;1.60;;;;;;;13.80;73.54;98520.16;4917554;28;20307;-53
2022/09/02 06:48:04;;;;;;;1.70;1.42;;;;;;;13.89;71.21;98516.50;4919445;29;20539;-52
2022/09/02 06:50:33;;;;;;;3.10;1.50;;;;;;;13.98;70.30;98519.91;4937793;28;20236;-54
2022/09/02 06:53:00;;;;;;;5.10;2.00;;;;;;;14.06;69.49;98516.38;4924576;29;21398;-55
2022/09/02 06:55:27;;;;;;;1.90;1.50;;;;;;;14.19;69.91;98523.69;4919771;28;20288;-55
2022/09/02 06:57:53;;;;;;;4.20;1.50;;;;;;;14.28;69.44;98517.38;4924793;28;20678;-54
2022/09/02 07:00:21;;;;;;;3.27;1.90;;;;;;;14.42;68.75;98521.03;4921091;28;20339;-54
2022/09/02 07:05:08;;;;;;;3.80;1.60;;;;;;;14.51;68.52;98517.31;4922384;28;20245;-54
2022/09/02 07:05:36;;;;;;;4.93;1.40;;;;;;;14.71;68.78;98506.31;4921048;28;20231;-55
2022/09/02 07:08:04;;;;;;;3.13;1.50;;;;;;;14.80;68.22;98510.50;4922539;29;20245;-53
2022/09/02 07:10:31;;;;;;;3.60;1.83;;;;;;;14.93;67.13;98511.66;4919878;28;20270;-54
2022/09/02 07:12:59;;;;;;;3.57;1.70;;;;;;;15.12;66.30;98516.34;4921269;29;20233;-54
2022/09/02 07:15:26;;;;;;;4.63;1.57;;;;;;;15.26;65.17;98509.47;4919096;28;20860;-54
2022/09/02 07:17:54;;;;;;;3.70;1.67;;;;;;;15.48;66.04;98520.84;4938207;28;20233;-54
2022/09/02 07:20:28;;;;;;;2.20;1.50;;;;;;;15.77;61.76;98505.13;4913876;28;20246;-54
2022/09/02 07:22:59;;;;;;;2.23;1.77;;;;;;;16.08;61.99;98514.56;4922873;29;20311;-53
2022/09/02 07:25:29;;;;;;;3.77;1.60;;;;;;;16.31;57.90;98511.72;4932466;28;20688;-53
2022/09/02 07:27:56;;;;;;;2.00;1.80;;;;;;;16.48;59.12;98514.06;4924073;28;20249;-54
2022/09/02 07:30:24;;;;;;;1.53;1.40;;;;;;;16.71;57.27;98505.91;4916190;28;20262;-55
2022/09/02 07:32:59;;;;;;;3.70;2.00;;;;;;;16.89;57.19;98523.03;4921453;29;20239;-55
2022/09/02 07:35:27;;;;;;;1.60;1.50;;;;;;;17.05;57.70;98514.00;4920670;28;20617;-56
2022/09/02 07:37:55;;;;;;;2.30;1.80;;;;;;;17.18;57.40;98513.28;4939592;28;20267;-55
2022/09/02 07:40:22;;;;;;;4.53;1.83;;;;;;;17.32;57.68;98522.06;4921278;29;20347;-51
2022/09/02 07:42:50;;;;;;;2.00;1.63;;;;;;;17.38;56.35;98522.09;4921815;28;20236;-55
2022/09/02 07:45:18;;;;;;;3.10;1.50;;;;;;;17.48;56.51;98513.78;4926483;28;20283;-52
2022/09/02 07:47:46;;;;;;;7.80;1.97;;;;;;;17.60;56.75;98523.78;4920770;29;20240;-53
2022/09/02 07:50:17;;;;;;;5.47;1.70;;;;;;;17.69;57.43;98523.38;4922693;29;20261;-52
2022/09/02 07:52:45;;;;;;;4.20;1.97;;;;;;;17.81;56.83;98520.16;4922323;28;20668;-54
2022/09/02 07:55:12;;;;;;;2.37;2.17;;;;;;;17.85;58.61;98516.09;4941991;28;20304;-55
2022/09/02 07:57:39;;;;;;;3.13;2.00;;;;;;;17.98;56.59;98521.41;4924411;28;20315;-51
2022/09/02 08:00:08;;;;;;;3.17;1.50;;;;;;;18.06;56.21;98527.53;4926229;29;20714;-52
2022/09/02 08:02:41;;;;;;;3.10;1.90;;;;;;;18.17;57.23;98526.09;4922984;28;20231;-55
2022/09/02 08:05:10;;;;;;;3.73;2.20;;;;;;;18.27;58.64;98529.16;4927516;29;20279;-52
2022/09/02 08:07:38;;;;;;;2.47;2.00;;;;;;;18.40;57.98;98528.38;4925014;28;20565;-52
2022/09/02 08:10:09;;;;;;;4.07;3.00;;;;;;;18.54;59.60;98534.44;4926835;28;20235;-53
2022/09/02 08:12:36;;;;;;;2.20;1.97;;;;;;;18.61;54.15;98519.38;4924030;28;21007;-53
2022/09/02 08:15:04;;;;;;;4.27;1.80;;;;;;;18.76;50.88;98529.72;4926929;28;20243;-53
2022/09/02 08:17:31;;;;;;;3.67;1.93;;;;;;;18.93;50.85;98516.06;4922578;28;20345;-55
2022/09/02 08:19:59;;;;;;;2.40;1.50;;;;;;;18.98;52.41;98521.56;4926119;28;20294;-55
2022/09/02 08:22:25;;;;;;;3.43;2.40;;;;;;;19.07;55.48;98528.25;4922464;28;20234;-53
2022/09/02 08:24:53;;;;;;;5.73;2.30;;;;;;;19.13;54.64;98537.19;4926127;28;20617;-54
2022/09/02 08:27:21;;;;;;;3.47;1.70;;;;;;;19.13;51.90;98524.78;4930805;28;20242;-52
2022/09/02 08:29:48;;;;;;;5.00;2.20;;;;;;;19.22;51.75;98540.44;4923948;28;20612;-53
2022/09/02 08:32:15;;;;;;;1.87;1.40;;;;;;;19.39;47.83;98531.00;4926120;28;20235;-54
2022/09/02 08:34:41;;;;;;;4.43;1.80;;;;;;;19.49;50.17;98530.53;4922502;28;20287;-52
2022/09/02 08:37:08;;;;;;;3.10;1.40;;;;;;;19.66;46.41;98522.91;4928497;28;20285;-54
2022/09/02 08:39:35;;;;;;;2.23;1.07;;;;;;;19.83;44.77;98517.91;4922912;28;20616;-53
2022/09/02 08:42:08;;;;;;;1.20;0.90;;;;;;;19.94;43.85;98511.13;4926387;28;20235;-55
2022/09/02 08:44:38;;;;;;;1.40;1.03;;;;;;;19.92;45.42;98507.91;4923989;28;20605;-52
2022/09/02 08:47:11;;;;;;;1.47;0.90;;;;;;;19.93;43.33;98508.72;4923388;29;20243;-52
2022/09/02 08:49:42;;;;;;;1.67;0.97;;;;;;;20.01;41.58;98500.50;4923230;29;20226;-52
2022/09/02 08:52:14;;;;;;;2.10;1.10;;;;;;;20.10;44.62;98512.47;4927361;28;20250;-55
2022/09/02 08:54:46;;;;;;;1.83;1.07;;;;;;;20.19;42.46;98513.00;4923156;28;20230;-55
2022/09/02 08:57:15;;;;;;;2.03;1.40;;;;;;;20.27;42.51;98512.72;4927434;28;20320;-52
2022/09/02 08:59:42;;;;;;;1.20;0.83;;;;;;;20.31;40.28;98498.03;4921811;28;20753;-55
2022/09/02 09:02:20;;;;;;;1.80;1.10;;;;;;;20.42;40.24;98511.59;4923368;28;20283;-54
2022/09/02 09:05:06;;;;;;;3.80;0.90;;;;;;;20.58;40.20;98505.72;4922981;28;20248;-52
2022/09/02 09:07:40;;;;;;;2.90;1.10;;;;;;;20.59;38.69;98507.34;4921674;28;20241;-55
2022/09/02 09:10:16;;;;;;;1.70;0.90;;;;;;;20.51;41.09;98494.38;4925223;29;20256;-54
2022/09/02 09:12:59;;;;;;;1.10;1.00;;;;;;;20.58;39.13;98502.25;4922473;28;20651;-52
2022/09/02 09:15:38;;;;;;;1.43;1.10;;;;;;;20.65;40.81;98509.13;4920472;28;20246;-53
2022/09/02 09:18:08;;;;;;;2.97;1.00;;;;;;;20.71;39.78;98510.06;4926848;28;20240;-54
2022/09/02 09:20:38;;;;;;;2.27;1.20;;;;;;;20.79;40.52;98501.88;4922425;28;20236;-53
2022/09/02 09:23:15;;;;;;;2.90;1.03;;;;;;;20.89;39.95;98505.84;4927079;28;20576;-56
2022/09/02 09:25:44;;;;;;;3.37;1.00;;;;;;;20.91;37.98;98504.59;4922706;28;20221;-56
2022/09/02 09:28:12;;;;;;;1.07;0.93;;;;;;;20.93;40.34;98501.72;4925954;28;20239;-56
2022/09/02 09:30:39;;;;;;;1.50;1.00;;;;;;;20.97;38.97;98502.91;4922349;29;20243;-56
2022/09/02 09:33:06;;;;;;;1.47;1.10;;;;;;;20.98;37.70;98514.31;4925359;28;20343;-56
2022/09/02 09:35:48;;;;;;;0.93;0.80;;;;;;;21.09;36.81;98489.69;4922157;28;20287;-56
2022/09/02 09:38:15;;;;;;;1.07;0.93;;;;;;;21.16;39.16;98492.28;4925464;28;20232;-56
2022/09/02 09:40:42;;;;;;;1.20;0.90;;;;;;;21.19;39.37;98491.84;4921672;28;20225;-56
2022/09/02 09:43:14;;;;;;;1.93;1.00;;;;;;;21.24;37.15;98491.94;4925096;28;20285;-56
2022/09/02 09:45:42;;;;;;;3.13;1.00;;;;;;;21.28;37.45;98508.25;4923464;28;20238;-56
2022/09/02 09:48:26;;;;;;;2.50;1.00;;;;;;;21.36;37.22;98492.81;4913025;29;20453;-57
2022/09/02 09:51:15;;;;;;;2.00;0.80;;;;;;;21.44;35.98;98490.88;4914018;29;20236;-56
2022/09/02 09:53:42;;;;;;;1.37;1.00;;;;;;;21.49;36.10;98498.97;4918865;29;20689;-56
2022/09/02 09:56:29;;;;;;;1.47;0.90;;;;;;;21.57;37.14;98495.22;4923126;29;20237;-53
2022/09/02 09:58:57;;;;;;;1.20;0.80;;;;;;;21.59;37.44;98493.13;4921825;28;20241;-54
2022/09/02 10:01:28;;;;;;;1.23;0.90;;;;;;;21.62;36.34;98484.72;4919874;28;20273;-55
2022/09/02 10:03:57;;;;;;;0.90;0.80;;;;;;;21.74;35.37;98482.91;4923657;28;20253;-56
2022/09/02 10:06:35;;;;;;;0.97;0.80;;;;;;;21.75;35.62;98471.25;4922204;28;20230;-56
2022/09/02 10:09:05;;;;;;;1.90;0.80;;;;;;;21.86;35.74;98469.66;4925004;28;20244;-56
2022/09/02 10:11:34;;;;;;;0.97;0.80;;;;;;;21.90;35.95;98473.50;4923643;28;21559;-56
2022/09/02 10:14:04;;;;;;;1.93;0.90;;;;;;;21.99;35.91;98473.16;4925505;29;20242;-55
2022/09/02 10:16:46;;;;;;;3.90;1.10;;;;;;;22.15;34.84;98458.38;4919148;28;20703;-55
2022/09/02 10:19:23;;;;;;;1.33;1.10;;;;;;;22.16;37.57;98462.66;4924478;28;20713;-54
2022/09/02 10:22:24;;;;;;;2.93;1.17;;;;;;;22.26;34.63;98461.00;4921997;28;20242;-54
2022/09/02 10:25:04;;;;;;;1.47;1.10;;;;;;;22.33;35.42;98450.28;4905692;28;20252;-56
2022/09/02 10:27:40;;;;;;;3.03;1.00;;;;;;;22.47;34.98;98447.41;4920412;28;20329;-55
2022/09/02 10:30:15;;;;;;;1.27;1.00;;;;;;;22.51;35.15;98438.72;4923359;28;20239;-55
2022/09/02 10:32:59;;;;;;;5.50;1.07;;;;;;;22.53;34.38;98441.16;4920898;28;20228;-55
2022/09/02 10:35:36;;;;;;;1.57;1.10;;;;;;;22.48;33.38;98433.88;4921354;28;20242;-55
2022/09/02 10:38:23;;;;;;;1.67;0.80;;;;;;;22.65;34.66;98422.50;4920804;28;20232;-54
2022/09/02 10:40:55;;;;;;;1.33;0.90;;;;;;;22.75;37.13;98432.56;4922145;29;20235;-55
2022/09/02 10:43:34;;;;;;;1.60;0.97;;;;;;;22.77;35.62;98439.25;4922945;28;20234;-56
2022/09/02 10:46:08;;;;;;;2.80;0.90;;;;;;;22.70;36.03;98433.25;4921800;28;20238;-55
2022/09/02 10:48:50;;;;;;;1.17;1.00;;;;;;;22.81;34.17;98426.28;4920605;28;20292;-55
2022/09/02 10:51:24;;;;;;;1.20;0.93;;;;;;;22.85;33.32;98430.09;4918873;28;20237;-53
2022/09/02 10:54:02;;;;;;;2.00;1.00;;;;;;;22.89;33.69;98427.78;4916673;28;20243;-55
2022/09/02 10:56:35;;;;;;;1.17;0.93;;;;;;;22.91;33.29;98421.16;4917043;28;20250;-52
2022/09/02 10:59:07;;;;;;;2.30;1.03;;;;;;;22.92;33.06;98417.44;4921433;28;20246;-54
2022/09/02 11:01:46;;;;;;;3.80;1.23;;;;;;;22.91;34.67;98412.38;4916841;28;20243;-54
2022/09/02 11:04:19;;;;;;;1.20;0.77;;;;;;;23.02;35.31;98418.69;4920598;29;20324;-55
2022/09/02 11:06:49;;;;;;;2.67;1.03;;;;;;;23.15;33.88;98419.22;4919255;28;20241;-55
2022/09/02 11:09:29;;;;;;;4.33;0.97;;;;;;;23.26;34.63;98414.13;4920266;28;21410;-56
2022/09/02 11:12:00;;;;;;;1.10;1.00;;;;;;;23.29;34.51;98414.44;4921403;28;20245;-55
2022/09/02 11:14:33;;;;;;;2.10;1.30;;;;;;;23.39;34.17;98418.34;4922005;28;20240;-55
2022/09/02 11:17:07;;;;;;;2.63;0.97;;;;;;;23.46;32.58;98407.50;4922947;28;20247;-56
2022/09/02 11:19:40;;;;;;;2.13;1.10;;;;;;;23.54;33.55;98415.94;4920659;29;20715;-56
2022/09/02 11:22:19;;;;;;;2.10;1.03;;;;;;;23.51;31.56;98407.59;4922252;29;20576;-55
2022/09/02 11:24:52;;;;;;;2.10;1.00;;;;;;;23.61;33.49;98407.78;4919896;28;20247;-56
2022/09/02 11:27:30;;;;;;;1.30;1.20;;;;;;;23.70;33.00;98414.31;4922516;29;20236;-55
2022/09/02 11:30:03;;;;;;;2.17;1.03;;;;;;;23.77;33.41;98400.84;4922321;28;20640;-54
2022/09/02 11:32:39;;;;;;;0.93;0.83;;;;;;;23.70;33.18;98410.84;4918000;28;20239;-53
2022/09/02 11:35:09;;;;;;;1.63;1.00;;;;;;;23.72;33.97;98412.22;4920722;29;20250;-53
2022/09/02 11:37:43;;;;;;;1.53;1.20;;;;;;;23.77;33.19;98410.69;4922145;28;20239;-56
2022/09/02 11:40:16;;;;;;;1.43;1.20;;;;;;;23.80;33.29;98407.53;4923439;28;20248;-56
2022/09/02 11:43:12;;;;;;;2.30;1.10;;;;;;;23.72;35.02;98398.09;4921551;28;20273;-56
2022/09/02 11:46:03;;;;;;;1.07;0.97;;;;;;;23.81;33.33;98401.16;4917841;28;20240;-54
2022/09/02 11:48:50;;;;;;;3.57;1.07;;;;;;;23.85;33.30;98404.94;4920759;29;20260;-55
2022/09/02 11:51:38;;;;;;;4.93;1.20;;;;;;;24.03;33.87;98407.38;4921795;28;20285;-57
2022/09/02 11:54:07;;;;;;;1.43;1.10;;;;;;;24.14;34.74;98397.66;4917886;28;20747;-55